sensor_id;sensor_type;location;lat;lon;timestamp;pressure;altitude;pressure_sealevel;temperature;humidity
77543;BME280;66669;52.100;5.104;2023-02-04T00:01:43;103243.47;;;26.36;30.70
77543;BME280;66669;52.100;5.104;2023-02-04T00:04:08;103243.81;;;26.47;30.26
77543;BME280;66669;52.100;5.104;2023-02-04T00:06:33;103246.25;;;26.49;30.22
77543;BME280;66669;52.100;5.104;2023-02-04T00:08:59;103251.16;;;26.52;30.45
77543;BME280;66669;52.100;5.104;2023-02-04T00:11:24;103246.34;;;26.52;30.00
77543;BME280;66669;52.100;5.104;2023-02-04T00:13:49;103242.16;;;26.46;29.87
77543;BME280;66669;52.100;5.104;2023-02-04T00:16:15;103232.31;;;26.40;29.93
77543;BME280;66669;52.100;5.104;2023-02-04T00:18:40;103251.09;;;26.36;29.84
77543;BME280;66669;52.100;5.104;2023-02-04T00:21:05;103252.59;;;26.33;29.80
77543;BME280;66669;52.100;5.104;2023-02-04T00:23:31;103250.88;;;26.29;30.08
77543;BME280;66669;52.100;5.104;2023-02-04T00:25:56;103240.25;;;26.22;29.94
77543;BME280;66669;52.100;5.104;2023-02-04T00:28:21;103239.69;;;26.17;30.00
77543;BME280;66669;52.100;5.104;2023-02-04T00:30:46;103245.31;;;26.17;29.94
77543;BME280;66669;52.100;5.104;2023-02-04T00:33:12;103253.66;;;26.13;30.11
77543;BME280;66669;52.100;5.104;2023-02-04T00:35:38;103254.00;;;26.11;29.86
77543;BME280;66669;52.100;5.104;2023-02-04T00:38:04;103257.16;;;26.10;29.95
77543;BME280;66669;52.100;5.104;2023-02-04T00:40:29;103253.44;;;26.06;29.96
77543;BME280;66669;52.100;5.104;2023-02-04T00:42:55;103256.94;;;26.03;30.04
77543;BME280;66669;52.100;5.104;2023-02-04T00:45:20;103266.06;;;26.00;29.98
77543;BME280;66669;52.100;5.104;2023-02-04T00:47:45;103261.53;;;25.95;30.00
77543;BME280;66669;52.100;5.104;2023-02-04T00:50:11;103269.41;;;25.90;30.08
77543;BME280;66669;52.100;5.104;2023-02-04T00:52:36;103274.09;;;25.85;30.20
77543;BME280;66669;52.100;5.104;2023-02-04T00:55:01;103271.97;;;25.82;30.06
77543;BME280;66669;52.100;5.104;2023-02-04T00:57:27;103276.66;;;25.78;30.32
77543;BME280;66669;52.100;5.104;2023-02-04T00:59:52;103282.66;;;25.77;30.25
77543;BME280;66669;52.100;5.104;2023-02-04T01:02:17;103279.34;;;25.75;30.26
77543;BME280;66669;52.100;5.104;2023-02-04T01:04:43;103284.03;;;25.71;30.31
77543;BME280;66669;52.100;5.104;2023-02-04T01:07:08;103276.31;;;25.68;30.27
77543;BME280;66669;52.100;5.104;2023-02-04T01:09:33;103282.63;;;25.64;30.23
77543;BME280;66669;52.100;5.104;2023-02-04T01:11:59;103285.81;;;25.63;30.46
77543;BME280;66669;52.100;5.104;2023-02-04T01:14:43;103288.94;;;25.61;30.43
77543;BME280;66669;52.100;5.104;2023-02-04T01:17:08;103285.69;;;25.59;30.34
77543;BME280;66669;52.100;5.104;2023-02-04T01:19:34;103295.28;;;25.58;30.44
77543;BME280;66669;52.100;5.104;2023-02-04T01:21:59;103297.16;;;25.54;30.38
77543;BME280;66669;52.100;5.104;2023-02-04T01:24:24;103295.03;;;25.51;30.50
77543;BME280;66669;52.100;5.104;2023-02-04T01:26:50;103304.66;;;25.50;30.54
77543;BME280;66669;52.100;5.104;2023-02-04T01:29:15;103308.59;;;25.49;30.53
77543;BME280;66669;52.100;5.104;2023-02-04T01:31:40;103310.13;;;25.47;30.46
77543;BME280;66669;52.100;5.104;2023-02-04T01:34:06;103316.44;;;25.44;30.43
77543;BME280;66669;52.100;5.104;2023-02-04T01:36:31;103316.00;;;25.42;30.51
77543;BME280;66669;52.100;5.104;2023-02-04T01:38:56;103320.31;;;25.39;30.55
77543;BME280;66669;52.100;5.104;2023-02-04T01:41:22;103318.56;;;25.34;30.52
77543;BME280;66669;52.100;5.104;2023-02-04T01:43:47;103326.50;;;25.32;30.69
77543;BME280;66669;52.100;5.104;2023-02-04T01:46:13;103332.47;;;25.31;30.59
77543;BME280;66669;52.100;5.104;2023-02-04T01:48:39;103329.53;;;25.27;30.67
77543;BME280;66669;52.100;5.104;2023-02-04T01:51:08;103330.69;;;25.26;30.57
77543;BME280;66669;52.100;5.104;2023-02-04T01:53:36;103327.91;;;25.26;30.56
77543;BME280;66669;52.100;5.104;2023-02-04T01:56:20;103323.78;;;25.24;30.84
77543;BME280;66669;52.100;5.104;2023-02-04T01:58:46;103324.16;;;25.22;30.79
77543;BME280;66669;52.100;5.104;2023-02-04T02:01:36;103323.69;;;25.20;30.74
77543;BME280;66669;52.100;5.104;2023-02-04T02:03:59;103341.66;;;25.19;30.84
77543;BME280;66669;52.100;5.104;2023-02-04T02:06:25;103340.41;;;25.17;30.75
77543;BME280;66669;52.100;5.104;2023-02-04T02:08:51;103343.53;;;25.15;30.89
77543;BME280;66669;52.100;5.104;2023-02-04T02:11:16;103344.34;;;25.16;30.89
77543;BME280;66669;52.100;5.104;2023-02-04T02:13:41;103351.94;;;25.15;30.89
77543;BME280;66669;52.100;5.104;2023-02-04T02:16:07;103346.69;;;25.13;30.87
77543;BME280;66669;52.100;5.104;2023-02-04T02:18:32;103346.25;;;25.11;30.91
77543;BME280;66669;52.100;5.104;2023-02-04T02:20:59;103342.59;;;25.11;30.90
77543;BME280;66669;52.100;5.104;2023-02-04T02:23:50;103352.19;;;25.10;30.93
77543;BME280;66669;52.100;5.104;2023-02-04T02:26:18;103352.53;;;25.08;30.98
77543;BME280;66669;52.100;5.104;2023-02-04T02:28:45;103352.53;;;25.08;30.82
77543;BME280;66669;52.100;5.104;2023-02-04T02:31:13;103359.63;;;25.06;30.96
77543;BME280;66669;52.100;5.104;2023-02-04T02:33:38;103354.38;;;25.04;31.04
77543;BME280;66669;52.100;5.104;2023-02-04T02:36:04;103363.97;;;25.03;31.02
77543;BME280;66669;52.100;5.104;2023-02-04T02:38:29;103359.16;;;25.04;30.98
77543;BME280;66669;52.100;5.104;2023-02-04T02:40:55;103359.50;;;25.02;31.01
77543;BME280;66669;52.100;5.104;2023-02-04T02:43:22;103359.84;;;25.01;31.00
77543;BME280;66669;52.100;5.104;2023-02-04T02:45:48;103363.47;;;25.01;30.98
77543;BME280;66669;52.100;5.104;2023-02-04T02:48:14;103359.84;;;25.01;31.13
77543;BME280;66669;52.100;5.104;2023-02-04T02:50:40;103359.34;;;24.99;31.02
77543;BME280;66669;52.100;5.104;2023-02-04T02:53:14;103361.34;;;24.98;31.12
77543;BME280;66669;52.100;5.104;2023-02-04T02:55:41;103365.31;;;24.97;31.17
77543;BME280;66669;52.100;5.104;2023-02-04T02:58:28;103370.47;;;24.95;31.12
77543;BME280;66669;52.100;5.104;2023-02-04T03:00:57;103366.50;;;24.96;31.05
77543;BME280;66669;52.100;5.104;2023-02-04T03:03:29;103365.69;;;24.96;31.13
77543;BME280;66669;52.100;5.104;2023-02-04T03:06:15;103365.69;;;24.96;31.12
77543;BME280;66669;52.100;5.104;2023-02-04T03:08:42;103368.81;;;24.94;31.02
77543;BME280;66669;52.100;5.104;2023-02-04T03:11:09;103369.97;;;24.93;31.04
77543;BME280;66669;52.100;5.104;2023-02-04T03:13:35;103368.72;;;24.91;31.07
77543;BME280;66669;52.100;5.104;2023-02-04T03:16:02;103370.34;;;24.92;31.08
77543;BME280;66669;52.100;5.104;2023-02-04T03:18:28;103368.72;;;24.91;31.13
77543;BME280;66669;52.100;5.104;2023-02-04T03:20:55;103369.03;;;24.89;31.25
77543;BME280;66669;52.100;5.104;2023-02-04T03:23:21;103373.00;;;24.88;31.17
77543;BME280;66669;52.100;5.104;2023-02-04T03:25:47;103363.78;;;24.87;31.27
77543;BME280;66669;52.100;5.104;2023-02-04T03:28:12;103370.56;;;24.86;31.17
77543;BME280;66669;52.100;5.104;2023-02-04T03:30:38;103368.91;;;24.85;31.16
77543;BME280;66669;52.100;5.104;2023-02-04T03:33:03;103377.31;;;24.85;31.32
77543;BME280;66669;52.100;5.104;2023-02-04T03:35:29;103375.22;;;24.82;31.22
77543;BME280;66669;52.100;5.104;2023-02-04T03:37:54;103369.59;;;24.82;31.24
77543;BME280;66669;52.100;5.104;2023-02-04T03:40:19;103372.41;;;24.82;31.21
77543;BME280;66669;52.100;5.104;2023-02-04T03:42:45;103369.94;;;24.81;31.11
77543;BME280;66669;52.100;5.104;2023-02-04T03:45:10;103373.91;;;24.80;31.18
77543;BME280;66669;52.100;5.104;2023-02-04T03:47:35;103374.28;;;24.78;31.31
77543;BME280;66669;52.100;5.104;2023-02-04T03:50:01;103375.09;;;24.79;31.29
77543;BME280;66669;52.100;5.104;2023-02-04T03:52:26;103374.59;;;24.77;31.38
77543;BME280;66669;52.100;5.104;2023-02-04T03:54:51;103372.59;;;24.77;31.14
77543;BME280;66669;52.100;5.104;2023-02-04T03:57:17;103378.56;;;24.76;31.16
77543;BME280;66669;52.100;5.104;2023-02-04T03:59:42;103383.38;;;24.75;31.09
77543;BME280;66669;52.100;5.104;2023-02-04T04:02:08;103378.09;;;24.74;31.27
77543;BME280;66669;52.100;5.104;2023-02-04T04:04:33;103379.25;;;24.73;31.32
77543;BME280;66669;52.100;5.104;2023-02-04T04:06:59;103377.97;;;24.70;31.20
77543;BME280;66669;52.100;5.104;2023-02-04T04:09:24;103378.78;;;24.71;31.32
77543;BME280;66669;52.100;5.104;2023-02-04T04:11:49;103382.41;;;24.71;31.23
77543;BME280;66669;52.100;5.104;2023-02-04T04:14:15;103381.09;;;24.69;31.19
77543;BME280;66669;52.100;5.104;2023-02-04T04:16:40;103384.72;;;24.69;31.11
77543;BME280;66669;52.100;5.104;2023-02-04T04:19:06;103387.88;;;24.68;31.13
77543;BME280;66669;52.100;5.104;2023-02-04T04:21:31;103389.50;;;24.69;31.30
77543;BME280;66669;52.100;5.104;2023-02-04T04:23:56;103394.66;;;24.67;31.25
77543;BME280;66669;52.100;5.104;2023-02-04T04:26:22;103388.22;;;24.66;31.23
77543;BME280;66669;52.100;5.104;2023-02-04T04:28:47;103388.91;;;24.63;31.17
77543;BME280;66669;52.100;5.104;2023-02-04T04:31:13;103393.34;;;24.64;31.16
77543;BME280;66669;52.100;5.104;2023-02-04T04:33:38;103395.34;;;24.63;31.23
77543;BME280;66669;52.100;5.104;2023-02-04T04:36:04;103389.25;;;24.61;31.15
77543;BME280;66669;52.100;5.104;2023-02-04T04:38:30;103394.50;;;24.63;31.33
77543;BME280;66669;52.100;5.104;2023-02-04T04:40:55;103388.09;;;24.62;31.17
77543;BME280;66669;52.100;5.104;2023-02-04T04:43:20;103380.84;;;24.61;31.25
77543;BME280;66669;52.100;5.104;2023-02-04T04:45:46;103395.69;;;24.62;31.24
77543;BME280;66669;52.100;5.104;2023-02-04T04:48:11;103390.41;;;24.60;31.29
77543;BME280;66669;52.100;5.104;2023-02-04T04:50:36;103403.59;;;24.60;31.24
77543;BME280;66669;52.100;5.104;2023-02-04T04:53:02;103397.53;;;24.58;31.21
77543;BME280;66669;52.100;5.104;2023-02-04T04:55:27;103392.75;;;24.58;31.18
77543;BME280;66669;52.100;5.104;2023-02-04T04:57:53;103398.34;;;24.58;31.23
77543;BME280;66669;52.100;5.104;2023-02-04T05:00:19;103397.53;;;24.58;31.23
77543;BME280;66669;52.100;5.104;2023-02-04T05:02:45;103393.09;;;24.57;31.29
77543;BME280;66669;52.100;5.104;2023-02-04T05:05:11;103402.31;;;24.57;31.06
77543;BME280;66669;52.100;5.104;2023-02-04T05:07:37;103411.06;;;24.56;31.17
77543;BME280;66669;52.100;5.104;2023-02-04T05:10:03;103404.63;;;24.55;31.21
77543;BME280;66669;52.100;5.104;2023-02-04T05:12:29;103398.22;;;24.55;31.23
77543;BME280;66669;52.100;5.104;2023-02-04T05:14:54;103400.19;;;24.54;31.18
77543;BME280;66669;52.100;5.104;2023-02-04T05:17:20;103406.63;;;24.55;31.17
77543;BME280;66669;52.100;5.104;2023-02-04T05:19:45;103401.38;;;24.53;31.19
77543;BME280;66669;52.100;5.104;2023-02-04T05:22:10;103406.16;;;24.53;31.28
77543;BME280;66669;52.100;5.104;2023-02-04T05:24:36;103400.88;;;24.51;31.19
77543;BME280;66669;52.100;5.104;2023-02-04T05:27:01;103404.84;;;24.50;31.32
77543;BME280;66669;52.100;5.104;2023-02-04T05:29:26;103404.03;;;24.50;31.18
77543;BME280;66669;52.100;5.104;2023-02-04T05:31:52;103406.81;;;24.50;31.27
77543;BME280;66669;52.100;5.104;2023-02-04T05:34:17;103410.44;;;24.50;31.21
77543;BME280;66669;52.100;5.104;2023-02-04T05:36:42;103420.03;;;24.49;31.14
77543;BME280;66669;52.100;5.104;2023-02-04T05:39:08;103428.44;;;24.49;31.26
77543;BME280;66669;52.100;5.104;2023-02-04T05:41:33;103434.72;;;24.46;31.20
77543;BME280;66669;52.100;5.104;2023-02-04T05:43:58;103438.34;;;24.47;31.34
77543;BME280;66669;52.100;5.104;2023-02-04T05:46:24;103439.50;;;24.46;31.30
77543;BME280;66669;52.100;5.104;2023-02-04T05:48:49;103436.22;;;24.44;31.24
77543;BME280;66669;52.100;5.104;2023-02-04T05:51:14;103442.66;;;24.44;31.32
77543;BME280;66669;52.100;5.104;2023-02-04T05:53:40;103444.63;;;24.44;31.32
77543;BME280;66669;52.100;5.104;2023-02-04T05:56:05;103451.41;;;24.43;31.19
77543;BME280;66669;52.100;5.104;2023-02-04T05:58:31;103447.78;;;24.42;31.32
77543;BME280;66669;52.100;5.104;2023-02-04T06:01:02;103445.78;;;24.43;31.23
77543;BME280;66669;52.100;5.104;2023-02-04T06:03:29;103448.94;;;24.41;31.21
77543;BME280;66669;52.100;5.104;2023-02-04T06:05:55;103448.44;;;24.39;31.38
77543;BME280;66669;52.100;5.104;2023-02-04T06:08:21;103444.50;;;24.40;31.22
77543;BME280;66669;52.100;5.104;2023-02-04T06:10:46;103450.13;;;24.40;31.40
77543;BME280;66669;52.100;5.104;2023-02-04T06:13:12;103443.19;;;24.37;31.38
77543;BME280;66669;52.100;5.104;2023-02-04T06:15:37;103451.59;;;24.37;31.28
77543;BME280;66669;52.100;5.104;2023-02-04T06:18:02;103450.75;;;24.37;31.27
77543;BME280;66669;52.100;5.104;2023-02-04T06:20:28;103456.69;;;24.35;31.36
77543;BME280;66669;52.100;5.104;2023-02-04T06:22:53;103463.94;;;24.36;31.39
77543;BME280;66669;52.100;5.104;2023-02-04T06:25:19;103469.56;;;24.36;31.30
77543;BME280;66669;52.100;5.104;2023-02-04T06:27:45;103475.47;;;24.35;31.37
77543;BME280;66669;52.100;5.104;2023-02-04T06:30:11;103483.88;;;24.35;31.38
77543;BME280;66669;52.100;5.104;2023-02-04T06:32:36;103487.84;;;24.34;31.35
77543;BME280;66669;52.100;5.104;2023-02-04T06:35:01;103484.59;;;24.32;31.38
77543;BME280;66669;52.100;5.104;2023-02-04T06:37:27;103490.19;;;24.32;31.41
77543;BME280;66669;52.100;5.104;2023-02-04T06:42:36;103501.41;;;24.32;31.32
77543;BME280;66669;52.100;5.104;2023-02-04T06:45:02;103502.53;;;24.31;31.27
77543;BME280;66669;52.100;5.104;2023-02-04T06:47:27;103499.75;;;24.31;31.39
77543;BME280;66669;52.100;5.104;2023-02-04T06:49:53;103502.53;;;24.31;31.41
77543;BME280;66669;52.100;5.104;2023-02-04T06:52:18;103498.91;;;24.30;31.41
77543;BME280;66669;52.100;5.104;2023-02-04T06:54:43;103505.69;;;24.29;31.27
77543;BME280;66669;52.100;5.104;2023-02-04T06:57:09;103512.13;;;24.30;31.40
77543;BME280;66669;52.100;5.104;2023-02-04T06:59:36;103516.91;;;24.29;31.41
77543;BME280;66669;52.100;5.104;2023-02-04T07:02:03;103520.06;;;24.28;31.32
77543;BME280;66669;52.100;5.104;2023-02-04T07:04:28;103524.00;;;24.27;31.33
77543;BME280;66669;52.100;5.104;2023-02-04T07:06:54;103510.81;;;24.27;31.29
77543;BME280;66669;52.100;5.104;2023-02-04T07:09:20;103509.16;;;24.26;31.33
77543;BME280;66669;52.100;5.104;2023-02-04T07:11:45;103519.25;;;24.27;31.28
77543;BME280;66669;52.100;5.104;2023-02-04T07:14:10;103519.25;;;24.27;31.41
77543;BME280;66669;52.100;5.104;2023-02-04T07:16:36;103515.59;;;24.27;31.40
77543;BME280;66669;52.100;5.104;2023-02-04T07:19:02;103509.97;;;24.27;31.34
77543;BME280;66669;52.100;5.104;2023-02-04T07:21:27;103515.94;;;24.25;31.44
77543;BME280;66669;52.100;5.104;2023-02-04T07:23:53;103518.72;;;24.25;31.38
77543;BME280;66669;52.100;5.104;2023-02-04T07:26:18;103520.38;;;24.26;31.40
77543;BME280;66669;52.100;5.104;2023-02-04T07:28:43;103524.00;;;24.27;31.37
77543;BME280;66669;52.100;5.104;2023-02-04T07:31:09;103520.72;;;24.25;31.43
77543;BME280;66669;52.100;5.104;2023-02-04T07:33:34;103526.31;;;24.25;31.33
77543;BME280;66669;52.100;5.104;2023-02-04T07:36:00;103531.94;;;24.25;31.37
77543;BME280;66669;52.100;5.104;2023-02-04T07:38:25;103537.88;;;24.23;31.30
77543;BME280;66669;52.100;5.104;2023-02-04T07:40:50;103546.28;;;24.23;31.33
77543;BME280;66669;52.100;5.104;2023-02-04T07:43:16;103545.13;;;24.24;31.38
77543;BME280;66669;52.100;5.104;2023-02-04T07:45:41;103549.91;;;24.24;31.33
77543;BME280;66669;52.100;5.104;2023-02-04T07:48:06;103551.91;;;24.23;31.39
77543;BME280;66669;52.100;5.104;2023-02-04T07:50:32;103550.22;;;24.22;31.45
77543;BME280;66669;52.100;5.104;2023-02-04T07:52:57;103552.22;;;24.22;31.29
77543;BME280;66669;52.100;5.104;2023-02-04T07:55:41;103561.13;;;24.24;31.47
77543;BME280;66669;52.100;5.104;2023-02-04T07:58:07;103560.63;;;24.22;31.43
77543;BME280;66669;52.100;5.104;2023-02-04T08:00:33;103564.25;;;24.22;31.40
77543;BME280;66669;52.100;5.104;2023-02-04T08:02:58;103569.53;;;24.24;31.28
77543;BME280;66669;52.100;5.104;2023-02-04T08:05:23;103566.22;;;24.22;31.38
77543;BME280;66669;52.100;5.104;2023-02-04T08:07:49;103561.13;;;24.24;31.41
77543;BME280;66669;52.100;5.104;2023-02-04T08:10:14;103567.53;;;24.24;31.27
77543;BME280;66669;52.100;5.104;2023-02-04T08:12:39;103565.56;;;24.25;31.28
77543;BME280;66669;52.100;5.104;2023-02-04T08:15:05;103591.13;;;24.23;31.41
77543;BME280;66669;52.100;5.104;2023-02-04T08:17:32;103579.22;;;24.26;31.58
77543;BME280;66669;52.100;5.104;2023-02-04T08:19:58;103594.56;;;24.29;31.31
77543;BME280;66669;52.100;5.104;2023-02-04T08:22:23;103592.94;;;24.28;31.52
77543;BME280;66669;52.100;5.104;2023-02-04T08:24:48;103602.47;;;24.27;31.51
77543;BME280;66669;52.100;5.104;2023-02-04T08:27:14;103594.41;;;24.25;31.51
77543;BME280;66669;52.100;5.104;2023-02-04T08:29:39;103590.78;;;24.25;31.50
77543;BME280;66669;52.100;5.104;2023-02-04T08:32:04;103600.34;;;24.24;31.44
77543;BME280;66669;52.100;5.104;2023-02-04T08:34:30;103595.88;;;24.23;31.47
77543;BME280;66669;52.100;5.104;2023-02-04T08:36:55;103601.50;;;24.23;31.43
77543;BME280;66669;52.100;5.104;2023-02-04T08:39:21;103610.41;;;24.25;31.51
77543;BME280;66669;52.100;5.104;2023-02-04T08:41:46;103608.75;;;24.24;31.47
77543;BME280;66669;52.100;5.104;2023-02-04T08:44:13;103611.56;;;24.24;31.46
77543;BME280;66669;52.100;5.104;2023-02-04T08:46:39;103610.41;;;24.25;31.45
77543;BME280;66669;52.100;5.104;2023-02-04T08:49:04;103614.84;;;24.26;31.56
77543;BME280;66669;52.100;5.104;2023-02-04T08:51:29;103616.81;;;24.25;31.63
77543;BME280;66669;52.100;5.104;2023-02-04T08:53:57;103620.13;;;24.27;31.63
77543;BME280;66669;52.100;5.104;2023-02-04T08:56:23;103618.00;;;24.24;31.70
77543;BME280;66669;52.100;5.104;2023-02-04T08:58:48;103626.72;;;24.23;31.69
77543;BME280;66669;52.100;5.104;2023-02-04T09:01:14;103621.97;;;24.23;31.69
77543;BME280;66669;52.100;5.104;2023-02-04T09:03:39;103625.59;;;24.24;31.74
77543;BME280;66669;52.100;5.104;2023-02-04T09:06:05;103629.19;;;24.24;31.69
77543;BME280;66669;52.100;5.104;2023-02-04T09:08:31;103633.31;;;24.27;31.93
77543;BME280;66669;52.100;5.104;2023-02-04T09:10:56;103638.59;;;24.28;31.86
77543;BME280;66669;52.100;5.104;2023-02-04T09:13:22;103630.19;;;24.28;31.96
77543;BME280;66669;52.100;5.104;2023-02-04T09:15:47;103631.81;;;24.29;31.97
77543;BME280;66669;52.100;5.104;2023-02-04T09:18:12;103630.66;;;24.30;32.03
77543;BME280;66669;52.100;5.104;2023-02-04T09:20:43;103635.44;;;24.30;32.03
77543;BME280;66669;52.100;5.104;2023-02-04T09:23:10;103630.66;;;24.30;32.10
77543;BME280;66669;52.100;5.104;2023-02-04T09:25:37;103631.47;;;24.31;32.16
77543;BME280;66669;52.100;5.104;2023-02-04T09:28:03;103645.19;;;24.32;32.10
77543;BME280;66669;52.100;5.104;2023-02-04T09:30:29;103639.56;;;24.32;32.08
77543;BME280;66669;52.100;5.104;2023-02-04T09:32:54;103639.56;;;24.32;32.20
77543;BME280;66669;52.100;5.104;2023-02-04T09:35:19;103631.97;;;24.33;32.32
77543;BME280;66669;52.100;5.104;2023-02-04T09:37:45;103636.41;;;24.34;32.27
77543;BME280;66669;52.100;5.104;2023-02-04T09:40:16;103636.41;;;24.34;32.31
77543;BME280;66669;52.100;5.104;2023-02-04T09:42:43;103637.25;;;24.34;32.34
77543;BME280;66669;52.100;5.104;2023-02-04T09:45:21;103637.25;;;24.34;32.58
77543;BME280;66669;52.100;5.104;2023-02-04T09:47:48;103646.16;;;24.45;34.06
77543;BME280;66669;52.100;5.104;2023-02-04T09:50:19;103643.81;;;24.47;33.45
77543;BME280;66669;52.100;5.104;2023-02-04T09:52:47;103648.59;;;24.47;33.13
77543;BME280;66669;52.100;5.104;2023-02-04T09:55:15;103648.41;;;24.52;32.59
77543;BME280;66669;52.100;5.104;2023-02-04T09:57:41;103658.97;;;24.55;32.35
77543;BME280;66669;52.100;5.104;2023-02-04T10:02:44;103660.78;;;24.59;32.17
77543;BME280;66669;52.100;5.104;2023-02-04T10:05:14;103662.41;;;24.60;32.29
77543;BME280;66669;52.100;5.104;2023-02-04T10:07:40;103662.41;;;24.60;32.27
77543;BME280;66669;52.100;5.104;2023-02-04T10:10:14;103655.66;;;24.61;32.31
77543;BME280;66669;52.100;5.104;2023-02-04T10:12:40;103661.75;;;24.63;32.19
77543;BME280;66669;52.100;5.104;2023-02-04T10:15:11;103663.06;;;24.66;32.18
77543;BME280;66669;52.100;5.104;2023-02-04T10:17:37;103671.47;;;24.66;32.11
77543;BME280;66669;52.100;5.104;2023-02-04T10:20:03;103676.28;;;24.66;32.19
77543;BME280;66669;52.100;5.104;2023-02-04T10:22:29;103673.47;;;24.66;32.19
77543;BME280;66669;52.100;5.104;2023-02-04T10:24:54;103675.09;;;24.67;32.28
77543;BME280;66669;52.100;5.104;2023-02-04T10:27:20;103676.75;;;24.68;32.25
77543;BME280;66669;52.100;5.104;2023-02-04T10:29:56;103673.94;;;24.68;32.34
77543;BME280;66669;52.100;5.104;2023-02-04T10:32:30;103671.13;;;24.68;32.33
77543;BME280;66669;52.100;5.104;2023-02-04T10:34:57;103670.31;;;24.67;32.30
77543;BME280;66669;52.100;5.104;2023-02-04T10:37:24;103679.53;;;24.68;32.27
77543;BME280;66669;52.100;5.104;2023-02-04T10:39:49;103674.28;;;24.66;32.27
77543;BME280;66669;52.100;5.104;2023-02-04T10:42:23;103672.78;;;24.69;32.51
77543;BME280;66669;52.100;5.104;2023-02-04T10:44:49;103672.78;;;24.69;32.51
77543;BME280;66669;52.100;5.104;2023-02-04T10:47:16;103677.25;;;24.70;32.37
77543;BME280;66669;52.100;5.104;2023-02-04T10:50:18;103680.53;;;24.72;32.54
77543;BME280;66669;52.100;5.104;2023-02-04T10:52:47;103681.19;;;24.69;32.48
77543;BME280;66669;52.100;5.104;2023-02-04T10:55:16;103670.78;;;24.69;32.69
77543;BME280;66669;52.100;5.104;2023-02-04T10:57:42;103683.81;;;24.74;32.62
77543;BME280;66669;52.100;5.104;2023-02-04T11:00:22;103671.63;;;24.70;32.55
77543;BME280;66669;52.100;5.104;2023-02-04T11:05:19;103682.84;;;24.70;32.63
77543;BME280;66669;52.100;5.104;2023-02-04T11:07:46;103684.50;;;24.71;32.68
77543;BME280;66669;52.100;5.104;2023-02-04T11:10:18;103680.03;;;24.70;32.68
77543;BME280;66669;52.100;5.104;2023-02-04T11:13:00;103678.88;;;24.71;33.25
77543;BME280;66669;52.100;5.104;2023-02-04T11:20:50;103677.69;;;24.80;32.42
77543;BME280;66669;52.100;5.104;2023-02-04T11:26:00;103677.16;;;24.87;32.24
77543;BME280;66669;52.100;5.104;2023-02-04T11:28:26;103667.22;;;24.89;32.27
77543;BME280;66669;52.100;5.104;2023-02-04T11:30:59;103665.75;;;24.92;32.24
77543;BME280;66669;52.100;5.104;2023-02-04T11:33:24;103668.19;;;24.94;32.33
77543;BME280;66669;52.100;5.104;2023-02-04T11:36:00;103669.16;;;24.98;32.28
77543;BME280;66669;52.100;5.104;2023-02-04T11:38:26;103666.03;;;24.99;32.25
77543;BME280;66669;52.100;5.104;2023-02-04T11:40:56;103665.34;;;25.02;32.17
77543;BME280;66669;52.100;5.104;2023-02-04T11:43:21;103664.22;;;25.03;32.16
77543;BME280;66669;52.100;5.104;2023-02-04T11:45:46;103658.25;;;25.05;32.26
77543;BME280;66669;52.100;5.104;2023-02-04T11:48:15;103666.00;;;25.08;32.07
77543;BME280;66669;52.100;5.104;2023-02-04T11:50:41;103669.66;;;25.08;32.08
77543;BME280;66669;52.100;5.104;2023-02-04T11:53:09;103658.06;;;25.10;32.07
77543;BME280;66669;52.100;5.104;2023-02-04T11:55:42;103666.50;;;25.10;32.12
77543;BME280;66669;52.100;5.104;2023-02-04T11:58:15;103669.81;;;25.12;32.10
77543;BME280;66669;52.100;5.104;2023-02-04T12:00:40;103657.41;;;25.13;32.14
77543;BME280;66669;52.100;5.104;2023-02-04T12:03:28;103666.66;;;25.13;32.20
77543;BME280;66669;52.100;5.104;2023-02-04T12:05:55;103669.09;;;25.15;32.28
77543;BME280;66669;52.100;5.104;2023-02-04T12:11:05;103670.41;;;25.18;32.43
77543;BME280;66669;52.100;5.104;2023-02-04T12:13:32;103665.28;;;25.20;32.52
77543;BME280;66669;52.100;5.104;2023-02-04T12:18:28;103670.72;;;25.25;32.39
77543;BME280;66669;52.100;5.104;2023-02-04T12:20:55;103673.16;;;25.26;32.37
77543;BME280;66669;52.100;5.104;2023-02-04T12:23:21;103672.00;;;25.27;32.36
77543;BME280;66669;52.100;5.104;2023-02-04T12:25:47;103666.06;;;25.29;32.17
77543;BME280;66669;52.100;5.104;2023-02-04T12:28:13;103672.16;;;25.31;32.29
77543;BME280;66669;52.100;5.104;2023-02-04T12:30:38;103671.78;;;25.32;32.19
77543;BME280;66669;52.100;5.104;2023-02-04T12:33:03;103666.19;;;25.32;32.17
77543;BME280;66669;52.100;5.104;2023-02-04T12:35:29;103674.28;;;25.34;32.27
77543;BME280;66669;52.100;5.104;2023-02-04T12:37:54;103678.25;;;25.33;32.41
77543;BME280;66669;52.100;5.104;2023-02-04T12:40:20;103674.94;;;25.31;32.27
77543;BME280;66669;52.100;5.104;2023-02-04T12:42:46;103676.94;;;25.30;32.37
77543;BME280;66669;52.100;5.104;2023-02-04T12:45:13;103671.31;;;25.30;32.22
77543;BME280;66669;52.100;5.104;2023-02-04T12:47:39;103667.34;;;25.31;32.22
77543;BME280;66669;52.100;5.104;2023-02-04T12:50:05;103667.34;;;25.31;32.29
77543;BME280;66669;52.100;5.104;2023-02-04T12:52:31;103674.75;;;25.36;32.23
77543;BME280;66669;52.100;5.104;2023-02-04T12:54:57;103666.47;;;25.39;32.28
77543;BME280;66669;52.100;5.104;2023-02-04T12:57:24;103667.44;;;25.44;32.12
77543;BME280;66669;52.100;5.104;2023-02-04T12:59:49;103668.75;;;25.46;32.02
77543;BME280;66669;52.100;5.104;2023-02-04T13:02:15;103668.88;;;25.50;31.92
77543;BME280;66669;52.100;5.104;2023-02-04T13:04:40;103672.50;;;25.50;32.07
77543;BME280;66669;52.100;5.104;2023-02-04T13:07:07;103666.53;;;25.52;32.00
77543;BME280;66669;52.100;5.104;2023-02-04T13:09:33;103669.00;;;25.53;31.97